SDG090 EGJJ-LICC
Flight info
| Callsign | SDG090 |
|---|---|
| Flight time | N/A |
| Altitude | 35000 |
| Route | DIN CAR PAL |
| Aircraft | A321/M-L/C |
Departure
| Time | 2026-05-04 16:04 |
|---|---|
| Airport | Jersey Airport (EGJJ) |
Arrival
| Time | N/A |
|---|---|
| Airport | Catania-Fontanarossa Airport (LICC) |
| Time | Latitude | Longitude | Altitude | Speed | Heading |
|---|---|---|---|---|---|
| 2026-05-04 15:39 | 49.20564 | -2.19640 | 271 ft | 0 kts | 161° |
| 2026-05-04 15:56 | 49.20584 | -2.19649 | 271 ft | 3 kts | 160° |
| 2026-05-04 15:56 | 49.20609 | -2.19657 | 271 ft | 3 kts | 184° |
| 2026-05-04 15:56 | 49.20627 | -2.19637 | 271 ft | 3 kts | 238° |
| 2026-05-04 15:56 | 49.20629 | -2.19633 | 271 ft | 0 kts | 244° |
| 2026-05-04 15:59 | 49.20623 | -2.19651 | 271 ft | 3 kts | 249° |
| 2026-05-04 15:59 | 49.20613 | -2.19710 | 270 ft | 7 kts | 260° |
| 2026-05-04 15:59 | 49.20604 | -2.19807 | 268 ft | 10 kts | 264° |
| 2026-05-04 16:00 | 49.20599 | -2.19882 | 268 ft | 6 kts | 258° |
| 2026-05-04 16:00 | 49.20564 | -2.19924 | 268 ft | 7 kts | 186° |
| 2026-05-04 16:00 | 49.20520 | -2.19962 | 268 ft | 8 kts | 249° |
| 2026-05-04 16:00 | 49.20524 | -2.20042 | 268 ft | 3 kts | 285° |
| 2026-05-04 16:01 | 49.20533 | -2.20088 | 268 ft | 4 kts | 286° |
| 2026-05-04 16:01 | 49.20543 | -2.20144 | 268 ft | 5 kts | 287° |
| 2026-05-04 16:01 | 49.20557 | -2.20212 | 267 ft | 8 kts | 288° |
| 2026-05-04 16:01 | 49.20578 | -2.20309 | 265 ft | 11 kts | 289° |
| 2026-05-04 16:02 | 49.20609 | -2.20440 | 260 ft | 15 kts | 291° |
| 2026-05-04 16:02 | 49.20625 | -2.20507 | 257 ft | 1 kts | 279° |
| 2026-05-04 16:02 | 49.20625 | -2.20658 | 248 ft | 8 kts | 275° |
| 2026-05-04 16:03 | 49.20670 | -2.20702 | 245 ft | 8 kts | 3° |
| 2026-05-04 16:03 | 49.20697 | -2.20672 | 248 ft | 2 kts | 60° |
| 2026-05-04 16:03 | 49.20703 | -2.20641 | 250 ft | 9 kts | 81° |
| 2026-05-04 16:03 | 49.20784 | -2.20207 | 267 ft | 80 kts | 85° |
| 2026-05-04 16:04 | 49.20851 | -2.18987 | 275 ft | 150 kts | 81° |
| 2026-05-04 16:04 | 49.21119 | -2.15497 | 1559 ft | 179 kts | 80° |
| 2026-05-04 16:04 | 49.21285 | -2.13505 | 1874 ft | 200 kts | 84° |
| 2026-05-04 16:05 | 49.20964 | -2.11282 | 1827 ft | 237 kts | 121° |
| 2026-05-04 16:05 | 49.19678 | -2.09591 | 1936 ft | 254 kts | 149° |
| 2026-05-04 16:05 | 49.16419 | -2.07174 | 3245 ft | 270 kts | 154° |
| 2026-05-04 16:06 | 49.14702 | -2.05954 | 4039 ft | 273 kts | 154° |
| 2026-05-04 16:06 | 49.09766 | -2.04699 | 4979 ft | 278 kts | 186° |
| 2026-05-04 16:07 | 49.07222 | -2.05153 | 4975 ft | 275 kts | 186° |